Terminal Aerodrome Forecast
Issued by NWS

Home | Current Version | Previous Version | Text Only | Print | Product List | Glossary On
Versions: 1 2 3 4 5 6 7 8 9 10 11 12 13 14 15 16 17 18 19 20 21 22 23 24
385
FTUS43 KGRB 061606 AAB
TAFATW
TAF AMD
KATW 061606Z 0616/0712 19008KT 1SM BR BKN004
     FM061900 21009G14KT 3SM -SN OVC007
     FM062100 24011G17KT P6SM BKN024
     FM062300 25014G20KT P6SM SCT040=

USA.gov is the U.S. government's official web portal to all federal, state and local government web resources and services.